Time;durP1;ratioP1;P1;durP2;ratioP2;P2;SDS_P1;SDS_P2;PMS_P1;PMS_P2;Temp;Humidity;BMP_temperature;BMP_pressure;BME280_temperature;BME280_humidity;BME280_pressure;Samples;Min_cycle;Max_cycle;Signal;HPM_P1;HPM_P2
2022/11/27 00:01:10;;;;;;;2.42;1.58;;;;;;;19.81;53.66;98094.34;10538322;28;20055;-49
2022/11/27 00:06:30;;;;;;;2.55;1.70;;;;;;;19.78;53.68;98086.00;10538260;28;20519;-46
2022/11/27 00:11:50;;;;;;;2.88;2.00;;;;;;;19.77;53.50;98090.63;10538623;28;20048;-47
2022/11/27 00:17:10;;;;;;;2.60;1.60;;;;;;;19.75;53.53;98085.50;10537592;28;20415;-47
2022/11/27 00:22:29;;;;;;;3.10;1.90;;;;;;;19.74;53.33;98078.50;10540057;28;20479;-48
2022/11/27 00:27:49;;;;;;;2.20;1.73;;;;;;;19.72;53.58;98071.78;10538179;28;20052;-48
2022/11/27 00:33:08;;;;;;;2.80;1.50;;;;;;;19.72;53.48;98063.69;10528706;28;20044;-48
2022/11/27 00:38:27;;;;;;;2.17;1.63;;;;;;;19.70;53.42;98063.94;10537127;28;20549;-46
2022/11/27 00:43:47;;;;;;;1.77;1.55;;;;;;;19.68;53.30;98065.31;10537740;28;20059;-46
2022/11/27 00:49:08;;;;;;;3.45;1.70;;;;;;;19.67;53.30;98064.50;10537793;28;20055;-45
2022/11/27 00:54:28;;;;;;;2.80;1.70;;;;;;;19.66;53.39;98068.31;10535759;28;20048;-48
2022/11/27 00:59:48;;;;;;;3.05;2.00;;;;;;;19.64;53.22;98075.09;10536642;28;20060;-47
2022/11/27 01:05:08;;;;;;;1.70;1.50;;;;;;;19.63;53.17;98077.00;10536708;28;20060;-48
2022/11/27 01:10:28;;;;;;;2.53;1.92;;;;;;;19.62;53.23;98080.81;10537379;28;20047;-46
2022/11/27 01:16:02;;;;;;;2.15;1.70;;;;;;;19.60;53.16;98084.91;10527177;28;20126;-47
2022/11/27 01:21:23;;;;;;;1.75;1.60;;;;;;;19.59;53.14;98077.91;10517454;28;20446;-49
2022/11/27 01:26:43;;;;;;;2.05;1.50;;;;;;;19.58;53.02;98081.69;10538806;28;20060;-47
2022/11/27 01:32:03;;;;;;;1.70;1.55;;;;;;;19.56;53.20;98080.09;10543516;28;20399;-46
2022/11/27 01:37:23;;;;;;;2.05;1.50;;;;;;;19.54;53.15;98074.19;10544406;28;20044;-49
2022/11/27 01:42:42;;;;;;;1.85;1.40;;;;;;;19.54;53.01;98073.34;10544452;28;20051;-47
2022/11/27 01:48:02;;;;;;;2.38;1.80;;;;;;;19.52;52.99;98072.84;10544321;28;20063;-47
2022/11/27 01:53:22;;;;;;;2.13;1.90;;;;;;;19.51;53.08;98071.25;10543237;28;20048;-47
2022/11/27 01:58:41;;;;;;;3.17;1.88;;;;;;;19.49;52.93;98071.53;10543627;28;20063;-47
2022/11/27 02:04:02;;;;;;;2.50;1.67;;;;;;;19.47;52.81;98065.63;10541655;28;20052;-48
2022/11/27 02:09:21;;;;;;;2.22;1.52;;;;;;;19.46;52.84;98055.09;10543547;28;20105;-48
2022/11/27 02:14:46;;;;;;;2.00;1.45;;;;;;;19.44;52.72;98055.38;10542839;28;20094;-47
2022/11/27 02:20:44;;;;;;;2.03;1.80;;;;;;;19.44;52.89;98049.97;10536511;28;20052;-48
2022/11/27 02:26:25;;;;;;;2.28;1.63;;;;;;;19.43;52.62;98039.50;10542974;28;20055;-48
2022/11/27 02:32:09;;;;;;;2.65;1.70;;;;;;;19.40;52.65;98021.94;10526856;28;20048;-48
2022/11/27 02:37:52;;;;;;;2.28;1.83;;;;;;;19.39;52.62;98014.94;10535089;28;20044;-48
2022/11/27 02:43:21;;;;;;;1.85;1.55;;;;;;;19.38;52.65;98007.91;10526579;28;20044;-47
2022/11/27 02:48:48;;;;;;;2.55;1.90;;;;;;;19.35;52.56;98014.72;10541901;28;20055;-49
2022/11/27 02:54:11;;;;;;;2.13;1.63;;;;;;;19.35;52.67;98003.13;10556070;28;20048;-47
2022/11/27 02:59:32;;;;;;;1.90;1.70;;;;;;;19.33;52.52;98005.31;10527456;28;20060;-46
2022/11/27 03:04:54;;;;;;;2.25;1.88;;;;;;;19.32;52.54;97995.59;10498203;28;20056;-46
2022/11/27 03:10:29;;;;;;;1.80;1.60;;;;;;;19.31;52.57;97991.28;10511723;28;20511;-47
2022/11/27 03:16:00;;;;;;;2.05;1.80;;;;;;;19.31;52.48;97991.28;10511026;28;20396;-47
2022/11/27 03:21:27;;;;;;;2.00;1.70;;;;;;;19.28;52.53;97986.47;10479352;28;20060;-47
2022/11/27 03:26:47;;;;;;;1.88;1.50;;;;;;;19.27;52.35;97990.28;10497282;28;20059;-48
2022/11/27 03:32:07;;;;;;;2.45;1.67;;;;;;;19.26;52.40;97991.38;10497370;28;20506;-47
2022/11/27 03:37:27;;;;;;;1.70;1.60;;;;;;;19.23;52.42;97995.47;10497514;28;20495;-49
2022/11/27 03:43:26;;;;;;;1.88;1.67;;;;;;;19.24;52.17;97996.25;10498024;28;20415;-47
2022/11/27 03:49:00;;;;;;;1.73;1.60;;;;;;;19.22;52.19;97998.44;10355319;28;20058;-46
2022/11/27 03:54:25;;;;;;;2.45;1.90;;;;;;;19.21;52.26;98000.34;10485957;28;20056;-47
2022/11/27 03:59:46;;;;;;;1.95;1.75;;;;;;;19.20;52.29;98006.03;10513191;28;20052;-45
2022/11/27 04:05:07;;;;;;;2.00;1.45;;;;;;;19.17;52.17;98010.94;10538070;28;20052;-46
2022/11/27 04:10:26;;;;;;;3.53;1.73;;;;;;;19.17;52.23;98013.63;10531571;28;20056;-47
2022/11/27 04:15:46;;;;;;;2.55;1.70;;;;;;;19.15;52.25;98018.53;10538580;28;20419;-46
2022/11/27 04:21:05;;;;;;;1.88;1.50;;;;;;;19.14;52.22;98019.59;10535128;28;20101;-46
2022/11/27 04:26:25;;;;;;;2.50;1.88;;;;;;;19.12;52.22;98016.41;10531512;28;20063;-46
2022/11/27 04:31:45;;;;;;;1.60;1.50;;;;;;;19.11;52.15;98022.91;10551732;28;20048;-45
2022/11/27 04:37:04;;;;;;;2.08;1.75;;;;;;;19.11;52.13;98013.97;10528208;28;20052;-46
2022/11/27 04:42:23;;;;;;;1.60;1.50;;;;;;;19.09;52.18;98011.59;10529800;28;20044;-46
2022/11/27 04:47:43;;;;;;;2.38;1.85;;;;;;;19.08;52.00;98004.56;10537819;28;20064;-49
2022/11/27 04:53:03;;;;;;;1.70;1.60;;;;;;;19.06;51.92;97998.66;10524533;28;20071;-46
2022/11/27 04:58:22;;;;;;;1.90;1.73;;;;;;;19.07;51.97;98004.84;10518510;28;20102;-47
2022/11/27 05:03:41;;;;;;;2.58;1.92;;;;;;;19.05;51.97;98007.06;10500640;28;20052;-48
2022/11/27 05:09:01;;;;;;;2.20;1.80;;;;;;;19.03;52.08;98001.94;10503874;28;20052;-48
2022/11/27 05:14:23;;;;;;;2.00;1.80;;;;;;;19.01;51.95;97993.31;10503657;28;20049;-46
2022/11/27 05:19:42;;;;;;;2.28;1.83;;;;;;;19.00;51.94;98001.75;10502237;28;20064;-47
2022/11/27 05:25:02;;;;;;;2.72;2.17;;;;;;;18.99;51.88;97998.22;10502504;28;20049;-49
2022/11/27 05:30:22;;;;;;;1.80;1.65;;;;;;;18.98;51.88;97998.53;10502687;28;20056;-48
2022/11/27 05:35:41;;;;;;;2.35;1.85;;;;;;;18.97;51.90;97997.69;10502107;28;20523;-47
2022/11/27 05:41:01;;;;;;;2.00;1.77;;;;;;;18.95;51.84;97995.31;10516041;28;20079;-46
2022/11/27 05:46:21;;;;;;;2.10;1.90;;;;;;;18.95;51.76;97989.09;10502084;28;20052;-46
2022/11/27 05:51:42;;;;;;;2.20;1.83;;;;;;;18.93;51.73;97993.97;10501713;28;20110;-46
2022/11/27 05:57:01;;;;;;;2.53;1.88;;;;;;;18.91;51.61;97993.47;10488212;28;20411;-47
2022/11/27 06:02:21;;;;;;;2.40;2.00;;;;;;;18.91;51.73;97996.16;10536145;28;20059;-47
2022/11/27 06:07:40;;;;;;;2.40;1.98;;;;;;;18.90;51.66;98008.88;10542568;28;20127;-46
2022/11/27 06:12:59;;;;;;;2.30;1.98;;;;;;;18.89;51.71;98006.44;10543114;28;20058;-47
2022/11/27 06:18:19;;;;;;;1.67;1.58;;;;;;;18.87;51.56;98014.03;10535623;28;20051;-48
2022/11/27 06:23:41;;;;;;;2.40;1.80;;;;;;;18.86;51.83;98018.66;10542691;28;20430;-45
2022/11/27 06:29:00;;;;;;;2.03;1.80;;;;;;;18.85;51.95;98021.63;10556231;28;20399;-48
2022/11/27 06:34:20;;;;;;;2.20;1.80;;;;;;;18.83;52.08;98011.13;10542513;28;20052;-47
2022/11/27 06:39:39;;;;;;;2.35;2.15;;;;;;;18.83;52.25;98026.53;10555346;28;20043;-46
2022/11/27 06:44:59;;;;;;;3.50;2.20;;;;;;;18.81;52.21;98021.41;10541951;28;20086;-49
2022/11/27 06:50:18;;;;;;;3.22;1.88;;;;;;;18.82;52.28;98008.69;10555119;28;20040;-48
2022/11/27 06:55:37;;;;;;;2.13;1.83;;;;;;;18.82;52.29;98006.00;10541438;28;20052;-48
2022/11/27 07:01:02;;;;;;;3.35;1.80;;;;;;;18.82;52.47;98008.69;10540746;28;20184;-46
2022/11/27 07:06:23;;;;;;;2.00;1.80;;;;;;;18.83;52.47;98007.63;10541101;28;20040;-48
2022/11/27 07:11:43;;;;;;;1.90;1.70;;;;;;;18.83;52.43;98005.72;10540586;28;20067;-50
2022/11/27 07:17:02;;;;;;;2.10;1.90;;;;;;;18.82;52.48;97992.50;10540686;28;20052;-49
2022/11/27 07:22:22;;;;;;;4.00;2.20;;;;;;;18.83;52.52;97999.53;10547167;28;20036;-46
2022/11/27 07:27:41;;;;;;;2.45;2.10;;;;;;;18.84;52.35;97993.84;10539603;28;20055;-49
2022/11/27 07:33:01;;;;;;;2.40;2.00;;;;;;;18.84;52.36;97983.03;10553347;28;20411;-47
2022/11/27 07:38:20;;;;;;;1.75;1.65;;;;;;;18.87;52.39;97968.13;10538924;28;20052;-47
2022/11/27 07:43:41;;;;;;;1.70;1.60;;;;;;;18.90;52.30;97967.56;10539012;28;20623;-49
2022/11/27 07:49:00;;;;;;;2.30;1.73;;;;;;;18.91;52.31;97961.06;10535380;28;20056;-49
2022/11/27 07:54:20;;;;;;;2.05;1.80;;;;;;;18.91;52.46;97969.97;10550292;28;20051;-47
2022/11/27 07:59:40;;;;;;;2.40;2.05;;;;;;;18.94;52.43;97963.19;10543742;28;20055;-49
2022/11/27 08:04:59;;;;;;;2.50;2.30;;;;;;;18.96;52.47;97966.41;10537895;28;20048;-48
2022/11/27 08:10:18;;;;;;;2.05;1.80;;;;;;;18.97;52.34;97970.69;10540435;28;20048;-47
2022/11/27 08:15:39;;;;;;;2.40;2.00;;;;;;;18.99;52.44;97963.09;10538328;28;20044;-46
2022/11/27 08:20:59;;;;;;;2.47;1.98;;;;;;;19.02;52.48;97967.13;10540472;28;20403;-48
2022/11/27 08:26:20;;;;;;;2.22;1.90;;;;;;;19.04;52.38;97962.25;10537679;28;20048;-48
2022/11/27 08:31:39;;;;;;;2.40;1.92;;;;;;;19.06;52.41;97958.16;10522847;28;20056;-46
2022/11/27 08:36:59;;;;;;;2.20;1.80;;;;;;;19.10;52.31;97958.38;10536299;28;20491;-49
2022/11/27 08:42:18;;;;;;;2.72;2.22;;;;;;;19.11;52.40;97958.09;10537307;28;20051;-46
2022/11/27 08:47:37;;;;;;;2.35;1.95;;;;;;;19.16;52.48;97954.50;10551451;28;20040;-48
2022/11/27 08:52:56;;;;;;;2.30;2.05;;;;;;;19.18;52.54;97952.31;10550803;28;20048;-49
2022/11/27 08:58:16;;;;;;;2.10;1.90;;;;;;;19.21;52.38;97959.00;10535537;28;20052;-45
2022/11/27 09:03:36;;;;;;;2.50;1.77;;;;;;;19.24;52.48;97936.81;10495054;28;20389;-45
2022/11/27 09:08:56;;;;;;;2.53;2.25;;;;;;;19.27;52.58;97952.47;10495239;28;20052;-48
2022/11/27 09:14:16;;;;;;;2.50;1.83;;;;;;;19.30;52.64;97939.13;10495342;28;20385;-48
2022/11/27 09:19:35;;;;;;;2.38;1.98;;;;;;;19.33;52.84;97935.06;10488578;28;20057;-49
2022/11/27 09:24:55;;;;;;;3.90;2.10;;;;;;;19.36;52.44;97940.66;10484563;28;20053;-48
2022/11/27 09:30:14;;;;;;;2.63;2.00;;;;;;;19.41;52.53;97937.09;10495236;28;20048;-47
2022/11/27 09:35:36;;;;;;;2.15;2.00;;;;;;;19.43;52.54;97943.00;10508695;28;20557;-47
2022/11/27 09:41:00;;;;;;;3.47;1.77;;;;;;;19.47;52.51;97938.59;10508310;28;20093;-47
2022/11/27 09:46:25;;;;;;;2.97;1.98;;;;;;;19.50;52.63;97939.91;10493968;28;20052;-47
2022/11/27 09:51:59;;;;;;;2.30;2.00;;;;;;;19.52;52.37;97938.53;10500537;28;20504;-48
2022/11/27 09:57:30;;;;;;;2.20;1.90;;;;;;;19.55;52.52;97932.50;10502003;28;20056;-46
2022/11/27 10:02:49;;;;;;;2.15;1.80;;;;;;;19.60;52.57;97922.72;10501626;28;20056;-46
2022/11/27 10:08:23;;;;;;;2.38;2.05;;;;;;;19.62;52.38;97915.09;10501713;28;20061;-49
2022/11/27 10:14:14;;;;;;;3.70;1.70;;;;;;;19.66;52.75;97908.00;10500182;28;20400;-50
2022/11/27 10:19:52;;;;;;;2.22;1.63;;;;;;;19.69;52.39;97893.91;10454102;28;20058;-48
2022/11/27 10:25:18;;;;;;;2.00;1.90;;;;;;;19.73;52.29;97873.31;10499824;28;20057;-47
2022/11/27 10:30:46;;;;;;;1.80;1.70;;;;;;;19.75;52.16;97869.19;10495429;28;20067;-47
2022/11/27 10:36:13;;;;;;;1.93;1.60;;;;;;;19.78;52.18;97859.72;10499659;28;20047;-48
2022/11/27 10:41:37;;;;;;;3.03;1.70;;;;;;;19.81;52.01;97864.50;10495044;28;20260;-50
2022/11/27 10:47:09;;;;;;;1.77;1.67;;;;;;;19.84;51.90;97858.50;10496907;28;20048;-49
2022/11/27 10:52:29;;;;;;;2.20;1.70;;;;;;;19.85;52.04;97849.28;10498805;28;20064;-46
2022/11/27 10:58:01;;;;;;;1.73;1.55;;;;;;;19.87;51.80;97843.56;10499429;28;20125;-46
2022/11/27 11:03:21;;;;;;;1.83;1.58;;;;;;;19.89;51.85;97839.47;10491793;28;20102;-48
2022/11/27 11:08:41;;;;;;;2.95;1.55;;;;;;;19.90;52.00;97832.97;10512538;28;20784;-45
2022/11/27 11:14:01;;;;;;;1.88;1.70;;;;;;;19.90;51.72;97822.13;10498124;28;20487;-45
2022/11/27 11:19:34;;;;;;;1.80;1.70;;;;;;;19.93;51.83;97818.03;10498546;28;20053;-47
2022/11/27 11:24:54;;;;;;;2.58;1.55;;;;;;;19.94;51.77;97825.84;10498511;28;20055;-47
2022/11/27 11:30:22;;;;;;;1.70;1.60;;;;;;;19.98;52.18;97817.13;10497835;28;20061;-48
2022/11/27 11:35:50;;;;;;;1.85;1.48;;;;;;;19.97;52.20;97819.03;10490320;28;20162;-46
2022/11/27 11:41:11;;;;;;;10.00;1.83;;;;;;;19.99;52.08;97810.59;10498143;28;20059;-44
2022/11/27 11:46:32;;;;;;;3.03;2.47;;;;;;;20.00;53.09;97804.91;10510021;28;20052;-45
2022/11/27 11:52:20;;;;;;;3.40;2.20;;;;;;;20.01;52.99;97803.00;10486282;28;20052;-46
2022/11/27 11:58:10;;;;;;;2.63;2.10;;;;;;;20.02;52.77;97793.78;10496255;28;20056;-45
2022/11/27 12:03:40;;;;;;;2.00;1.80;;;;;;;20.02;52.78;97788.38;10510297;28;20510;-45
2022/11/27 12:09:12;;;;;;;4.53;2.58;;;;;;;20.03;52.99;97787.25;10496653;28;20052;-47
2022/11/27 12:14:49;;;;;;;6.10;2.70;;;;;;;20.02;53.61;97783.75;10496983;28;20044;-47
2022/11/27 12:20:30;;;;;;;6.75;5.65;;;;;;;19.84;43.49;97782.78;10500956;28;20392;-47
2022/11/27 12:26:09;;;;;;;7.05;5.65;;;;;;;19.40;39.03;97772.53;10510281;28;20037;-46
2022/11/27 12:31:54;;;;;;;6.38;5.28;;;;;;;19.16;39.21;97771.59;10495628;28;20506;-46
2022/11/27 12:37:23;;;;;;;7.70;4.70;;;;;;;19.01;37.96;97771.88;10499276;28;20045;-46
2022/11/27 12:42:50;;;;;;;5.78;5.18;;;;;;;18.87;37.41;97771.03;10495179;28;20044;-46
2022/11/27 12:48:26;;;;;;;7.70;5.30;;;;;;;18.80;38.47;97766.03;10507061;28;20049;-44
2022/11/27 12:53:51;;;;;;;32.17;10.45;;;;;;;19.06;42.71;97769.09;10487065;28;20118;-46
2022/11/27 12:59:11;;;;;;;19.70;8.00;;;;;;;19.29;45.24;97769.25;10504382;28;20053;-45
2022/11/27 13:04:40;;;;;;;18.83;7.63;;;;;;;19.42;46.78;97767.63;10495518;28;20403;-47
2022/11/27 13:10:20;;;;;;;16.60;6.95;;;;;;;19.51;48.17;97768.56;10495002;28;20526;-48
2022/11/27 13:15:44;;;;;;;12.18;10.00;;;;;;;19.48;43.47;97756.44;10495460;28;20056;-47
2022/11/27 13:21:08;;;;;;;11.57;9.85;;;;;;;18.78;40.41;97744.69;10504000;28;20052;-48
2022/11/27 13:26:33;;;;;;;9.45;7.72;;;;;;;18.95;43.61;97744.19;10515221;28;20040;-45
2022/11/27 13:31:55;;;;;;;8.43;7.05;;;;;;;19.15;44.71;97740.31;10502438;28;20059;-48
2022/11/27 13:37:27;;;;;;;8.48;6.95;;;;;;;19.29;44.81;97724.09;10501759;28;20117;-48
2022/11/27 13:42:52;;;;;;;11.13;6.22;;;;;;;19.37;45.18;97709.09;10502209;28;20052;-44
2022/11/27 13:48:29;;;;;;;7.80;6.50;;;;;;;19.42;45.25;97706.28;10500621;28;20086;-47
2022/11/27 13:53:49;;;;;;;8.27;5.97;;;;;;;19.45;45.63;97697.59;10498933;28;20048;-45
2022/11/27 13:59:19;;;;;;;7.95;6.80;;;;;;;19.48;46.00;97697.00;10500417;28;20071;-44
2022/11/27 14:04:48;;;;;;;8.35;6.35;;;;;;;19.51;46.05;97709.09;10492054;28;20060;-45
2022/11/27 14:10:19;;;;;;;8.52;6.60;;;;;;;19.51;46.28;97693.66;10496473;28;20057;-44
2022/11/27 14:15:39;;;;;;;8.95;6.47;;;;;;;19.55;46.42;97689.25;10508698;28;20048;-44
2022/11/27 14:21:02;;;;;;;10.82;6.40;;;;;;;19.57;46.82;97675.44;10494655;28;20515;-45
2022/11/27 14:26:23;;;;;;;9.93;7.10;;;;;;;19.61;46.64;97679.16;10500351;28;20049;-47
2022/11/27 14:31:42;;;;;;;10.57;7.70;;;;;;;19.65;44.52;97672.03;10496047;28;20048;-45
2022/11/27 14:37:02;;;;;;;12.77;8.07;;;;;;;19.69;44.58;97672.22;10497857;28;20059;-46
2022/11/27 14:42:24;;;;;;;12.65;8.57;;;;;;;19.67;44.79;97672.53;10493251;28;20059;-44
2022/11/27 14:47:51;;;;;;;10.18;8.63;;;;;;;19.66;43.20;97662.00;10499241;28;20056;-44
2022/11/27 14:53:11;;;;;;;8.87;7.17;;;;;;;19.67;44.00;97663.63;10512109;28;20094;-46
2022/11/27 14:58:31;;;;;;;11.70;7.97;;;;;;;19.68;44.67;97648.97;10506314;28;20049;-44
2022/11/27 15:03:59;;;;;;;9.73;7.65;;;;;;;19.67;44.61;97647.41;10499129;28;20055;-47
2022/11/27 15:09:21;;;;;;;10.47;8.90;;;;;;;19.66;44.20;97635.78;10491704;28;20052;-45
2022/11/27 15:14:46;;;;;;;9.65;7.65;;;;;;;19.68;44.79;97635.47;10499024;28;20101;-45
2022/11/27 15:20:23;;;;;;;10.25;7.47;;;;;;;19.69;44.91;97637.09;10498112;28;20056;-48
2022/11/27 15:25:45;;;;;;;9.82;7.75;;;;;;;19.68;45.16;97633.59;10493924;28;20052;-45
2022/11/27 15:31:30;;;;;;;10.05;7.45;;;;;;;19.70;45.74;97633.28;10497962;28;20063;-44
2022/11/27 15:36:54;;;;;;;9.90;6.80;;;;;;;19.71;46.17;97634.88;10497503;28;20056;-47
2022/11/27 15:42:16;;;;;;;7.78;6.40;;;;;;;19.74;46.42;97637.00;10497879;28;20048;-46
2022/11/27 15:47:36;;;;;;;9.45;6.72;;;;;;;19.74;46.70;97637.00;10496680;28;20487;-48
2022/11/27 15:52:56;;;;;;;9.70;6.72;;;;;;;19.73;45.76;97630.00;10510525;28;20044;-48
2022/11/27 15:58:16;;;;;;;9.57;6.88;;;;;;;19.75;46.65;97630.47;10496994;28;20064;-45
2022/11/27 16:03:35;;;;;;;8.25;6.32;;;;;;;19.78;47.11;97616.38;10489049;28;20044;-45
2022/11/27 16:08:55;;;;;;;9.02;6.55;;;;;;;19.80;47.40;97607.94;10497215;28;20052;-45
2022/11/27 16:14:15;;;;;;;6.65;6.00;;;;;;;19.81;47.69;97599.50;10496823;28;20052;-45
2022/11/27 16:19:34;;;;;;;10.63;6.72;;;;;;;19.83;47.74;97591.91;10504017;28;20510;-46
2022/11/27 16:24:54;;;;;;;11.75;6.70;;;;;;;19.86;47.98;97568.88;10485756;28;20162;-46
2022/11/27 16:30:13;;;;;;;7.00;6.18;;;;;;;19.88;48.36;97566.66;10496326;28;20133;-47
2022/11/27 16:35:35;;;;;;;9.35;6.40;;;;;;;19.90;48.47;97569.84;10489942;28;20049;-45
2022/11/27 16:40:59;;;;;;;7.72;6.03;;;;;;;19.90;48.56;97553.63;10481551;28;20083;-46
2022/11/27 16:46:28;;;;;;;9.18;5.60;;;;;;;19.90;48.63;97545.53;10496168;28;20063;-46
2022/11/27 16:51:49;;;;;;;6.93;5.82;;;;;;;19.91;48.76;97547.88;10495807;28;20052;-46
2022/11/27 16:57:08;;;;;;;9.32;6.03;;;;;;;19.92;48.85;97538.69;10509703;28;20052;-48
2022/11/27 17:02:28;;;;;;;8.30;6.00;;;;;;;19.92;48.64;97530.56;10503568;28;20052;-44
2022/11/27 17:07:48;;;;;;;7.68;5.70;;;;;;;19.91;48.75;97518.16;10503909;28;20109;-48
2022/11/27 17:13:07;;;;;;;8.60;6.07;;;;;;;19.92;48.67;97517.06;10502947;28;20060;-46
2022/11/27 17:18:27;;;;;;;7.93;6.45;;;;;;;19.92;48.70;97517.06;10497423;28;20068;-47
2022/11/27 17:23:47;;;;;;;6.97;5.97;;;;;;;19.93;48.81;97523.25;10516504;28;20044;-46
2022/11/27 17:29:11;;;;;;;9.65;6.15;;;;;;;19.96;48.90;97525.34;10515607;28;20052;-46
2022/11/27 17:34:31;;;;;;;6.55;5.85;;;;;;;19.97;49.03;97515.31;10501208;28;20519;-50
2022/11/27 17:39:51;;;;;;;7.60;5.97;;;;;;;19.98;49.13;97506.13;10502751;28;20056;-46
2022/11/27 17:45:11;;;;;;;10.98;6.30;;;;;;;20.01;49.37;97506.28;10502393;28;20044;-46
2022/11/27 17:50:31;;;;;;;7.68;5.72;;;;;;;20.01;49.42;97498.16;10502134;28;20060;-47
2022/11/27 17:55:51;;;;;;;9.95;6.40;;;;;;;20.04;49.48;97485.94;10501370;28;20045;-45
2022/11/27 18:01:19;;;;;;;10.00;6.50;;;;;;;20.04;49.45;97475.13;10534147;28;20056;-46
2022/11/27 18:06:39;;;;;;;7.87;6.00;;;;;;;20.05;49.28;97469.41;10533479;28;20361;-46
2022/11/27 18:12:01;;;;;;;11.60;6.50;;;;;;;20.04;49.17;97467.00;10527197;28;20060;-45
2022/11/27 18:17:21;;;;;;;9.38;6.03;;;;;;;20.03;49.31;97471.63;10540929;28;20052;-45
2022/11/27 18:22:41;;;;;;;10.10;6.30;;;;;;;20.04;49.25;97469.72;10532441;28;20039;-47
2022/11/27 18:28:02;;;;;;;7.13;5.78;;;;;;;20.04;49.21;97467.00;10535037;28;20052;-45
2022/11/27 18:33:21;;;;;;;6.53;5.85;;;;;;;20.04;49.17;97461.59;10531947;28;20491;-45
2022/11/27 18:38:43;;;;;;;6.85;5.78;;;;;;;20.03;49.24;97460.81;10510576;28;20106;-49
2022/11/27 18:44:03;;;;;;;6.95;6.07;;;;;;;20.03;49.19;97454.59;10541801;28;20055;-44
2022/11/27 18:49:26;;;;;;;6.97;6.05;;;;;;;20.04;49.23;97456.19;10541658;28;20066;-47
2022/11/27 18:54:48;;;;;;;6.63;5.32;;;;;;;20.03;49.13;97430.25;10474363;28;20123;-46
2022/11/27 19:00:08;;;;;;;7.70;6.13;;;;;;;20.02;49.43;97426.75;10541032;28;20063;-45
2022/11/27 19:05:28;;;;;;;6.60;5.25;;;;;;;20.04;49.43;97412.91;10539162;28;20047;-47
2022/11/27 19:10:48;;;;;;;6.53;5.60;;;;;;;20.04;49.55;97407.50;10541179;28;20059;-46
2022/11/27 19:16:13;;;;;;;8.70;5.97;;;;;;;20.03;49.97;97405.91;10540832;28;20048;-47
2022/11/27 19:21:33;;;;;;;7.05;5.50;;;;;;;20.02;49.91;97398.91;10524098;28;20055;-45
2022/11/27 19:26:53;;;;;;;7.20;5.30;;;;;;;20.02;49.87;97398.91;10525645;28;20040;-45
2022/11/27 19:32:13;;;;;;;7.45;5.30;;;;;;;20.02;50.14;97393.50;10540558;28;20060;-45
2022/11/27 19:37:33;;;;;;;10.23;5.30;;;;;;;20.02;50.21;97383.47;10553455;28;20036;-43
2022/11/27 19:42:53;;;;;;;9.75;4.90;;;;;;;20.00;50.36;97372.16;10540161;28;20055;-44
2022/11/27 19:48:13;;;;;;;11.57;5.25;;;;;;;20.01;50.65;97364.84;10524154;28;20055;-46
2022/11/27 19:53:33;;;;;;;7.13;5.30;;;;;;;20.00;50.73;97363.28;10534271;28;20056;-45
2022/11/27 19:58:52;;;;;;;6.93;5.45;;;;;;;20.00;50.77;97360.56;10512705;28;20067;-47
2022/11/27 20:04:14;;;;;;;6.93;5.20;;;;;;;19.98;51.14;97373.59;10523687;28;20060;-43
2022/11/27 20:09:34;;;;;;;6.57;5.05;;;;;;;19.98;51.51;97374.41;10528874;28;20067;-48
2022/11/27 20:14:56;;;;;;;8.43;6.32;;;;;;;19.98;51.73;97366.28;10512461;28;20495;-43
2022/11/27 20:20:16;;;;;;;9.30;5.55;;;;;;;19.97;50.99;97366.59;10538128;28;20411;-45
2022/11/27 20:25:40;;;;;;;9.40;5.45;;;;;;;19.94;51.06;97352.59;10523436;28;20376;-44
2022/11/27 20:31:02;;;;;;;9.23;5.40;;;;;;;19.94;51.67;97351.78;10517831;28;20083;-48
2022/11/27 20:36:22;;;;;;;6.80;5.50;;;;;;;19.92;51.73;97360.22;10522406;28;20075;-46
2022/11/27 20:41:42;;;;;;;7.95;6.00;;;;;;;19.89;49.03;97347.31;10536017;28;20036;-45
2022/11/27 20:47:02;;;;;;;7.38;5.05;;;;;;;19.88;50.67;97351.13;10505119;28;20052;-44
2022/11/27 20:52:22;;;;;;;8.35;5.57;;;;;;;19.86;51.02;97339.84;10514516;28;20048;-47
2022/11/27 20:57:41;;;;;;;8.02;5.72;;;;;;;19.85;51.01;97330.13;10518556;28;20056;-46
2022/11/27 21:03:01;;;;;;;8.05;5.32;;;;;;;19.86;51.00;97331.72;10533133;28;20044;-44
2022/11/27 21:08:21;;;;;;;7.75;5.15;;;;;;;19.84;51.12;97336.66;10516927;28;20052;-45
2022/11/27 21:13:41;;;;;;;6.85;5.00;;;;;;;19.83;51.38;97332.34;10536535;28;20044;-46
2022/11/27 21:19:04;;;;;;;7.93;5.13;;;;;;;19.82;51.29;97336.16;10533801;28;20048;-44
2022/11/27 21:24:27;;;;;;;6.68;5.18;;;;;;;19.81;51.40;97333.78;10507961;28;20050;-48
2022/11/27 21:29:48;;;;;;;9.55;4.93;;;;;;;19.79;51.65;97327.88;10529323;28;20048;-47
2022/11/27 21:35:09;;;;;;;7.78;4.70;;;;;;;19.80;51.43;97321.34;10508098;28;20052;-48
2022/11/27 21:40:29;;;;;;;5.97;4.90;;;;;;;19.78;51.45;97308.16;10519766;28;20056;-44
2022/11/27 21:45:49;;;;;;;7.47;5.40;;;;;;;19.76;51.71;97299.56;10526341;28;20048;-47
2022/11/27 21:51:11;;;;;;;5.00;4.47;;;;;;;19.75;51.71;97289.84;10529709;28;20052;-45
2022/11/27 21:56:33;;;;;;;5.47;4.95;;;;;;;19.74;51.79;97285.56;10528854;28;20065;-46
2022/11/27 22:01:55;;;;;;;5.75;4.80;;;;;;;19.72;51.89;97282.38;10529138;28;20044;-45
2022/11/27 22:07:15;;;;;;;7.28;4.93;;;;;;;19.70;52.00;97282.66;10543191;28;20139;-45
2022/11/27 22:12:34;;;;;;;6.28;4.90;;;;;;;19.70;52.08;97273.75;10525655;28;20411;-46
2022/11/27 22:17:54;;;;;;;6.47;4.65;;;;;;;19.69;52.13;97266.75;10534768;28;20067;-45
2022/11/27 22:23:14;;;;;;;6.50;4.95;;;;;;;19.68;52.20;97254.34;10522687;28;20535;-47
2022/11/27 22:28:35;;;;;;;5.15;4.65;;;;;;;19.66;52.03;97254.66;10543067;28;20052;-47
2022/11/27 22:33:56;;;;;;;4.95;4.45;;;;;;;19.65;52.30;97250.34;10527812;28;20044;-46
2022/11/27 22:39:15;;;;;;;4.95;4.45;;;;;;;19.63;52.10;97246.38;10527202;28;20059;-47
2022/11/27 22:44:36;;;;;;;5.13;4.45;;;;;;;19.61;52.22;97252.09;10542423;28;20391;-46
2022/11/27 22:49:57;;;;;;;6.18;4.82;;;;;;;19.61;52.22;97241.28;10541770;28;20059;-47
2022/11/27 22:55:17;;;;;;;5.65;4.63;;;;;;;19.60;52.30;97230.78;10541009;28;20067;-45
2022/11/27 23:00:36;;;;;;;5.70;4.72;;;;;;;19.58;52.24;97227.59;10531247;28;20044;-47
2022/11/27 23:05:56;;;;;;;5.88;4.57;;;;;;;19.56;52.19;97209.00;10526475;28;20059;-46
2022/11/27 23:11:18;;;;;;;5.53;4.63;;;;;;;19.54;52.22;97190.41;10541163;28;20116;-46
2022/11/27 23:16:38;;;;;;;5.43;4.82;;;;;;;19.53;52.18;97182.63;10534146;28;20044;-45
2022/11/27 23:21:58;;;;;;;5.90;4.70;;;;;;;19.50;52.14;97184.03;10534952;28;20063;-45
2022/11/27 23:27:17;;;;;;;5.88;4.63;;;;;;;19.50;52.21;97178.66;10541329;28;20059;-45
2022/11/27 23:32:38;;;;;;;6.20;4.57;;;;;;;19.48;52.21;97180.88;10540953;28;20052;-47
2022/11/27 23:37:57;;;;;;;4.82;4.32;;;;;;;19.47;52.28;97179.25;10538141;28;20048;-47
2022/11/27 23:43:17;;;;;;;5.32;4.47;;;;;;;19.45;52.15;97173.38;10527503;28;20496;-45
2022/11/27 23:48:36;;;;;;;4.80;4.38;;;;;;;19.44;52.20;97174.47;10539900;28;20048;-48
2022/11/27 23:53:56;;;;;;;4.97;4.10;;;;;;;19.42;52.33;97163.19;10539798;28;20047;-49
2022/11/27 23:59:16;;;;;;;6.60;4.55;;;;;;;19.42;52.23;97148.88;10538990;28;20063;-47
